PAMD METAR and TAF weather

Enter ICAO airport designator
Station Type Date Time Source
PAMD METAR 2020/02/19 14:51 UTC NOAA

PAMD 191451Z AUTO 21011KT 9SM FEW034 04/03 A2924 RMK AO2 SLP890 60001 T00390028 53040


Station Type Date Time Source
PAMD Decoded METAR 2020/02/19 14:51 UTC NOAA

Middleton Island, Middleton Island Airport, AK, United States (PAMD) 59-26N 146-18W 14M
Feb 19, 2020 - 09:51 AM EST / 2020.02.19 1451 UTC
Wind: from the SSW (210 degrees) at 13 MPH (11 KT):0
Visibility: 9 mile(s):0
Sky conditions: mostly clear
Temperature: 39.0 F (3.9 C)
Dew Point: 37.0 F (2.8 C)
Relative Humidity: 92%
Pressure (altimeter): 29.24 in. Hg (990 hPa)
Pressure tendency: 0.12 inches (4.0 hPa) higher than three hours ago
ob: PAMD 191451Z AUTO 21011KT 9SM FEW034 04/03 A2924 RMK AO2 SLP890 60001 T00390028 53040
cycle: 15

Station Type Date Time Source
PAMD TAF UTC NOAA

Error!

Example: see airport list